Time;durP1;ratioP1;P1;durP2;ratioP2;P2;SDS_P1;SDS_P2;PMS_P1;PMS_P2;Temp;Humidity;BMP_temperature;BMP_pressure;BME280_temperature;BME280_humidity;BME280_pressure;Samples;Min_cycle;Max_cycle;Signal;HPM_P1;HPM_P2
2023/08/07 00:01:44;;;;;;;8.00;3.60;;;;;;;25.82;100.00;97966.19;105935;1253;61264;-74
2023/08/07 00:04:11;;;;;;;12.60;3.40;;;;;;;25.79;100.00;97960.89;105935;1253;61388;-73
2023/08/07 00:06:37;;;;;;;4.20;3.40;;;;;;;25.74;100.00;97959.98;105991;1250;61359;-74
2023/08/07 00:09:04;;;;;;;7.40;3.20;;;;;;;25.69;100.00;97959.05;105954;1251;61334;-74
2023/08/07 00:11:31;;;;;;;9.00;3.60;;;;;;;25.64;100.00;97960.20;105981;1250;74747;-74
2023/08/07 00:13:58;;;;;;;10.60;3.70;;;;;;;25.60;100.00;97952.98;105946;1250;71032;-74
2023/08/07 00:16:25;;;;;;;8.20;3.60;;;;;;;25.56;100.00;97952.98;105910;1251;72984;-74
2023/08/07 00:18:55;;;;;;;4.80;3.90;;;;;;;25.54;100.00;97951.34;105960;1251;61449;-73
2023/08/07 00:21:23;;;;;;;7.90;3.60;;;;;;;25.51;100.00;97948.79;105911;1250;61363;-74
2023/08/07 00:23:49;;;;;;;6.70;3.70;;;;;;;25.49;100.00;97944.02;105972;1253;74887;-75
2023/08/07 00:26:16;;;;;;;8.60;4.00;;;;;;;25.46;100.00;97939.91;105963;1250;70905;-74
2023/08/07 00:28:43;;;;;;;5.70;4.00;;;;;;;25.42;100.00;97933.98;105946;1249;72774;-74
2023/08/07 00:31:10;;;;;;;5.10;3.80;;;;;;;25.39;100.00;97927.52;105910;1250;61233;-74
2023/08/07 00:33:37;;;;;;;5.60;3.60;;;;;;;25.36;100.00;97925.20;105919;1251;61237;-74
2023/08/07 00:36:04;;;;;;;7.00;3.80;;;;;;;25.33;100.00;97927.39;105922;1251;74339;-74
2023/08/07 00:38:31;;;;;;;5.70;3.40;;;;;;;25.29;100.00;97922.59;105918;1251;71173;-74
2023/08/07 00:40:59;;;;;;;6.50;4.10;;;;;;;25.27;100.00;97918.94;105953;1251;72524;-74
2023/08/07 00:43:26;;;;;;;11.50;4.10;;;;;;;25.25;100.00;97917.90;105973;1253;61349;-74
2023/08/07 00:45:52;;;;;;;4.80;3.60;;;;;;;25.23;100.00;97918.45;105915;1253;61296;-74
2023/08/07 00:48:19;;;;;;;10.50;4.40;;;;;;;25.21;100.00;97917.02;105945;1253;74337;-74
2023/08/07 00:50:46;;;;;;;10.70;4.00;;;;;;;25.19;100.00;97916.17;105793;1255;61295;-74
2023/08/07 00:53:14;;;;;;;10.10;3.90;;;;;;;25.16;100.00;97917.45;105826;1251;72533;-74
2023/08/07 00:55:41;;;;;;;6.60;4.20;;;;;;;25.13;100.00;97908.75;105818;1251;61316;-75
2023/08/07 00:58:08;;;;;;;10.30;4.60;;;;;;;25.09;100.00;97903.40;105946;1253;61257;-74
2023/08/07 01:00:35;;;;;;;5.20;3.70;;;;;;;25.07;100.00;97905.81;105847;1256;74480;-74
2023/08/07 01:03:05;;;;;;;6.60;3.80;;;;;;;25.05;100.00;97902.02;105956;1253;69989;-74
2023/08/07 01:05:33;;;;;;;12.90;3.70;;;;;;;25.01;100.00;97894.39;105844;1251;72643;-74
2023/08/07 01:08:00;;;;;;;4.90;3.90;;;;;;;24.99;100.00;97899.08;105714;1250;61322;-74
2023/08/07 01:11:03;;;;;;;6.40;3.50;;;;;;;24.98;100.00;97900.16;106013;1250;61323;-74
2023/08/07 01:13:34;;;;;;;7.10;3.70;;;;;;;24.94;100.00;97897.55;105916;1253;74535;-74
2023/08/07 01:16:07;;;;;;;7.50;4.00;;;;;;;24.92;100.00;97889.66;105993;1250;70943;-75
2023/08/07 01:18:34;;;;;;;7.10;3.80;;;;;;;24.90;100.00;97882.96;105841;1256;72463;-75
2023/08/07 01:21:03;;;;;;;5.80;4.10;;;;;;;24.88;100.00;97881.27;105956;1250;61261;-73
2023/08/07 01:23:30;;;;;;;8.40;4.00;;;;;;;24.85;100.00;97879.42;105922;1249;61334;-74
2023/08/07 01:25:56;;;;;;;8.60;4.40;;;;;;;24.82;100.00;97878.30;105932;1253;61260;-74
2023/08/07 01:28:34;;;;;;;10.90;4.00;;;;;;;24.80;100.00;97871.39;105919;1250;70981;-74
2023/08/07 01:31:04;;;;;;;4.90;4.00;;;;;;;24.77;100.00;97867.75;105973;1250;71131;-74
2023/08/07 01:33:49;;;;;;;8.30;4.30;;;;;;;24.76;100.00;97864.47;106037;1253;61369;-76
2023/08/07 01:36:19;;;;;;;4.60;4.00;;;;;;;24.75;100.00;97852.95;105940;1251;61260;-75
2023/08/07 01:38:45;;;;;;;8.20;4.00;;;;;;;24.72;100.00;97843.31;105903;1249;74469;-75
2023/08/07 01:41:12;;;;;;;9.70;4.10;;;;;;;24.68;100.00;97837.92;105903;1253;69535;-74
2023/08/07 01:43:40;;;;;;;10.80;4.40;;;;;;;24.65;100.00;97837.95;105917;1251;72722;-74
2023/08/07 01:46:07;;;;;;;6.10;4.40;;;;;;;24.62;100.00;97833.44;105968;1251;61332;-74
2023/08/07 01:48:33;;;;;;;10.00;4.50;;;;;;;24.59;100.00;97820.66;105922;1253;61241;-74
2023/08/07 01:51:00;;;;;;;11.70;4.40;;;;;;;24.57;100.00;97816.06;105895;1253;74459;-75
2023/08/07 01:53:27;;;;;;;9.30;4.20;;;;;;;24.55;100.00;97820.42;105885;1253;69529;-75
2023/08/07 01:55:53;;;;;;;7.00;4.10;;;;;;;24.54;100.00;97823.95;105921;1253;72473;-74
2023/08/07 01:58:20;;;;;;;10.50;4.50;;;;;;;24.52;100.00;97826.46;105857;1250;61265;-75
2023/08/07 02:00:47;;;;;;;11.00;3.90;;;;;;;24.53;100.00;97835.41;105851;1252;61388;-74
2023/08/07 02:03:13;;;;;;;8.30;4.40;;;;;;;24.52;100.00;97832.60;105875;1250;74902;-74
2023/08/07 02:05:40;;;;;;;5.90;3.80;;;;;;;24.52;100.00;97834.98;105998;1250;71123;-74
2023/08/07 02:08:07;;;;;;;6.00;4.40;;;;;;;24.51;100.00;97836.39;105907;1253;72526;-75
2023/08/07 02:10:34;;;;;;;11.90;4.40;;;;;;;24.51;100.00;97837.95;105927;1250;61264;-75
2023/08/07 02:13:00;;;;;;;8.80;4.30;;;;;;;24.51;100.00;97835.46;105956;1251;61313;-75
2023/08/07 02:15:27;;;;;;;7.00;4.30;;;;;;;24.50;100.00;97839.48;105919;1253;74439;-76
2023/08/07 02:17:53;;;;;;;8.40;4.60;;;;;;;24.49;100.00;97836.02;105921;1251;69690;-75
2023/08/07 02:20:20;;;;;;;6.60;4.50;;;;;;;24.48;100.00;97839.65;105871;1250;71141;-75
2023/08/07 02:22:47;;;;;;;7.30;4.30;;;;;;;24.48;100.00;97843.12;105944;1251;61349;-75
2023/08/07 02:25:13;;;;;;;6.40;4.40;;;;;;;24.45;100.00;97843.39;105943;1251;61365;-74
2023/08/07 02:27:40;;;;;;;9.50;4.40;;;;;;;24.44;100.00;97848.27;105935;1253;74655;-74
2023/08/07 02:30:07;;;;;;;13.50;4.20;;;;;;;24.42;100.00;97848.48;105926;1250;71119;-74
2023/08/07 02:32:34;;;;;;;10.70;4.30;;;;;;;24.40;100.00;97851.59;106084;1251;73119;-74
2023/08/07 02:35:01;;;;;;;8.50;4.20;;;;;;;24.37;100.00;97853.54;105918;1251;61324;-74
2023/08/07 02:37:28;;;;;;;7.10;4.70;;;;;;;24.35;100.00;97852.38;105913;1250;61270;-75
2023/08/07 02:39:54;;;;;;;8.90;4.40;;;;;;;24.34;100.00;97847.31;105950;1253;74473;-74
2023/08/07 02:42:21;;;;;;;8.70;4.30;;;;;;;24.32;100.00;97839.44;105945;1253;61334;-74
2023/08/07 02:44:48;;;;;;;10.30;4.40;;;;;;;24.31;100.00;97826.32;105982;1253;71637;-75
2023/08/07 02:47:14;;;;;;;7.60;4.50;;;;;;;24.29;100.00;97830.49;105925;1253;61295;-74
2023/08/07 02:49:41;;;;;;;6.40;4.50;;;;;;;24.26;100.00;97828.48;105907;1253;61347;-74
2023/08/07 02:52:08;;;;;;;7.90;5.00;;;;;;;24.25;100.00;97833.59;105868;1254;74669;-74
2023/08/07 02:54:35;;;;;;;9.40;4.70;;;;;;;24.25;100.00;97832.39;105869;1250;71001;-75
2023/08/07 02:57:01;;;;;;;8.40;4.70;;;;;;;24.24;100.00;97833.77;105920;1253;61264;-74
2023/08/07 02:59:28;;;;;;;5.40;4.70;;;;;;;24.23;100.00;97831.76;105994;1251;61378;-74
2023/08/07 03:01:54;;;;;;;7.90;4.70;;;;;;;24.22;100.00;97826.66;105903;1250;61346;-75
2023/08/07 03:04:21;;;;;;;8.50;4.70;;;;;;;24.21;100.00;97820.67;105912;1250;74625;-73
2023/08/07 03:06:48;;;;;;;9.20;4.70;;;;;;;24.20;100.00;97817.65;105911;1250;61366;-75
2023/08/07 03:09:14;;;;;;;6.60;4.60;;;;;;;24.18;100.00;97819.28;105858;1250;72655;-75
2023/08/07 03:11:41;;;;;;;6.60;4.80;;;;;;;24.16;100.00;97820.35;105928;1249;61281;-74
2023/08/07 03:14:08;;;;;;;7.80;4.70;;;;;;;24.15;100.00;97818.16;105955;1251;61196;-73
2023/08/07 03:16:34;;;;;;;8.60;5.00;;;;;;;24.13;100.00;97809.98;105962;1250;74485;-74
2023/08/07 03:19:01;;;;;;;9.50;5.00;;;;;;;24.12;100.00;97810.27;105987;1251;70859;-75
2023/08/07 03:21:28;;;;;;;15.50;4.90;;;;;;;24.11;100.00;97817.17;105824;1251;72544;-74
2023/08/07 03:23:55;;;;;;;8.70;4.60;;;;;;;24.09;100.00;97827.91;105822;1250;61863;-74
2023/08/07 03:26:22;;;;;;;8.30;4.30;;;;;;;24.10;100.00;97832.38;105955;1251;61337;-74
2023/08/07 03:28:49;;;;;;;7.40;4.20;;;;;;;24.10;100.00;97833.58;105932;1250;74706;-74
2023/08/07 03:31:16;;;;;;;7.10;4.40;;;;;;;24.09;100.00;97834.56;105912;1250;70942;-73
2023/08/07 03:33:43;;;;;;;10.80;5.00;;;;;;;24.08;100.00;97831.27;105922;1253;72575;-74
2023/08/07 03:36:10;;;;;;;7.10;4.70;;;;;;;24.05;100.00;97827.30;105925;1253;61433;-74
2023/08/07 03:38:37;;;;;;;6.20;4.30;;;;;;;24.04;100.00;97831.23;105907;1253;61317;-74
2023/08/07 03:41:04;;;;;;;9.30;4.80;;;;;;;24.03;100.00;97831.59;105844;1250;74927;-74
2023/08/07 03:43:31;;;;;;;12.10;5.60;;;;;;;24.03;100.00;97834.27;105985;1250;70983;-74
2023/08/07 03:45:58;;;;;;;6.70;4.90;;;;;;;24.03;100.00;97831.85;105863;1250;72515;-74
2023/08/07 03:48:30;;;;;;;11.70;4.80;;;;;;;24.04;100.00;97824.13;105782;1250;61249;-74
2023/08/07 03:51:05;;;;;;;9.70;5.10;;;;;;;24.04;100.00;97826.73;105835;1251;61419;-74
2023/08/07 03:53:34;;;;;;;7.80;4.80;;;;;;;24.06;100.00;97826.35;105855;1250;73222;-74
2023/08/07 03:56:01;;;;;;;5.80;4.60;;;;;;;24.06;100.00;97822.42;106005;1250;71122;-73
2023/08/07 03:58:29;;;;;;;10.20;4.40;;;;;;;24.06;100.00;97818.44;105834;1250;72368;-73
2023/08/07 04:00:56;;;;;;;5.70;4.60;;;;;;;24.06;100.00;97814.17;105966;1249;61308;-74
2023/08/07 04:03:23;;;;;;;6.20;4.60;;;;;;;24.07;100.00;97802.63;105888;1251;61223;-75
2023/08/07 04:05:53;;;;;;;7.30;4.40;;;;;;;24.08;100.00;97795.48;105895;1251;74468;-75
2023/08/07 04:08:22;;;;;;;14.00;4.60;;;;;;;24.11;100.00;97796.07;106012;1253;70659;-75
2023/08/07 04:11:02;;;;;;;5.90;4.70;;;;;;;24.14;100.00;97792.88;105953;1251;72449;-75
2023/08/07 04:13:29;;;;;;;11.80;5.30;;;;;;;24.17;100.00;97788.55;105963;1250;61962;-76
2023/08/07 04:15:56;;;;;;;5.50;4.70;;;;;;;24.19;100.00;97790.23;106030;1250;61350;-73
2023/08/07 04:18:23;;;;;;;12.90;5.40;;;;;;;24.21;100.00;97788.27;105945;1253;74445;-76
2023/08/07 04:20:52;;;;;;;9.10;5.40;;;;;;;24.22;100.00;97795.11;105952;1250;71070;-75
2023/08/07 04:23:20;;;;;;;7.20;5.00;;;;;;;24.23;100.00;97798.61;105973;1251;72663;-74
2023/08/07 04:25:47;;;;;;;10.20;5.50;;;;;;;24.23;100.00;97798.38;105928;1250;61679;-74
2023/08/07 04:28:14;;;;;;;10.50;5.00;;;;;;;24.25;100.00;97795.80;105932;1253;61256;-74
2023/08/07 04:30:41;;;;;;;9.30;5.20;;;;;;;24.26;100.00;97790.89;105926;1249;74380;-74
2023/08/07 04:33:08;;;;;;;9.80;4.90;;;;;;;24.26;100.00;97791.95;105981;1250;70994;-75
2023/08/07 04:35:35;;;;;;;9.50;5.20;;;;;;;24.26;100.00;97790.86;105959;1251;70748;-74
2023/08/07 04:38:02;;;;;;;11.10;5.40;;;;;;;24.29;100.00;97790.19;105914;1253;61310;-74
2023/08/07 04:40:29;;;;;;;5.70;4.90;;;;;;;24.31;100.00;97792.08;106010;1251;61369;-74
2023/08/07 04:42:56;;;;;;;12.80;4.80;;;;;;;24.34;100.00;97795.51;105931;1249;74816;-75
2023/08/07 04:45:22;;;;;;;10.40;5.20;;;;;;;24.35;100.00;97796.23;105990;1253;69522;-74
2023/08/07 04:47:49;;;;;;;9.50;5.10;;;;;;;24.37;100.00;97794.11;105905;1251;72630;-73
2023/08/07 04:50:16;;;;;;;13.50;6.10;;;;;;;24.37;100.00;97795.35;105954;1251;61286;-75
2023/08/07 04:52:43;;;;;;;6.40;5.10;;;;;;;24.37;100.00;97786.00;105968;1253;61238;-76
2023/08/07 04:55:09;;;;;;;8.60;5.70;;;;;;;24.39;100.00;97787.40;105907;1253;74450;-76
2023/08/07 04:57:36;;;;;;;8.30;5.30;;;;;;;24.40;100.00;97785.22;105967;1250;69617;-75
2023/08/07 05:00:04;;;;;;;12.90;5.50;;;;;;;24.42;100.00;97778.43;105954;1250;61308;-75
2023/08/07 05:02:30;;;;;;;10.90;5.00;;;;;;;24.43;100.00;97777.88;105990;1251;61299;-75
2023/08/07 05:04:58;;;;;;;14.40;6.10;;;;;;;24.46;100.00;97775.96;105931;1253;61238;-75
2023/08/07 05:07:24;;;;;;;12.40;5.30;;;;;;;24.49;100.00;97765.68;105943;1253;74606;-75
2023/08/07 05:09:51;;;;;;;11.50;5.50;;;;;;;24.55;100.00;97766.52;105929;1250;71015;-75
2023/08/07 05:12:18;;;;;;;12.60;5.70;;;;;;;24.61;100.00;97766.46;105922;1249;72468;-74
2023/08/07 05:14:44;;;;;;;12.70;5.10;;;;;;;24.67;100.00;97764.20;105950;1251;62033;-73
2023/08/07 05:17:12;;;;;;;13.90;5.50;;;;;;;24.73;100.00;97776.86;106018;1250;61356;-74
2023/08/07 05:19:39;;;;;;;10.70;5.30;;;;;;;24.79;100.00;97776.25;105975;1253;74286;-75
2023/08/07 05:22:06;;;;;;;6.50;5.50;;;;;;;24.85;100.00;97767.10;106001;1250;71123;-75
2023/08/07 05:24:38;;;;;;;10.80;5.50;;;;;;;24.92;100.00;97760.27;106022;1250;72479;-74
2023/08/07 05:27:08;;;;;;;8.40;5.30;;;;;;;24.97;100.00;97754.45;105929;1250;61881;-75
2023/08/07 05:29:43;;;;;;;9.70;5.10;;;;;;;25.02;100.00;97750.41;105980;1253;61122;-75
2023/08/07 05:32:11;;;;;;;9.80;5.00;;;;;;;25.07;100.00;97759.67;105924;1250;73057;-74
2023/08/07 05:34:38;;;;;;;10.00;5.50;;;;;;;25.10;100.00;97763.56;105937;1250;69989;-75
2023/08/07 05:37:05;;;;;;;17.00;5.20;;;;;;;25.13;100.00;97761.98;105948;1251;72796;-75
2023/08/07 05:39:32;;;;;;;12.10;4.90;;;;;;;25.15;100.00;97757.33;105965;1253;61271;-75
2023/08/07 05:41:59;;;;;;;13.80;5.70;;;;;;;25.18;100.00;97759.69;105923;1250;61250;-74
2023/08/07 05:44:26;;;;;;;9.20;5.40;;;;;;;25.22;100.00;97758.69;106070;1249;74619;-74
2023/08/07 05:46:53;;;;;;;10.00;4.80;;;;;;;25.23;100.00;97764.34;105962;1253;69587;-75
2023/08/07 05:49:19;;;;;;;8.00;4.60;;;;;;;25.23;100.00;97773.84;105953;1253;72496;-75
2023/08/07 05:51:47;;;;;;;12.30;5.30;;;;;;;25.21;100.00;97770.06;105985;1250;61322;-74
2023/08/07 05:54:13;;;;;;;12.50;4.70;;;;;;;25.22;100.00;97781.34;105999;1253;61219;-75
2023/08/07 05:56:40;;;;;;;18.20;5.20;;;;;;;25.20;100.00;97792.29;105968;1250;61340;-74
2023/08/07 05:59:07;;;;;;;16.30;4.90;;;;;;;25.19;100.00;97800.88;105986;1250;71103;-75
2023/08/07 06:01:36;;;;;;;13.60;4.70;;;;;;;25.18;100.00;97781.89;105903;1250;72681;-73
2023/08/07 06:04:03;;;;;;;15.00;4.90;;;;;;;25.21;100.00;97773.70;105978;1251;61263;-74
2023/08/07 06:06:34;;;;;;;9.30;5.40;;;;;;;25.26;100.00;97770.05;105927;1251;61295;-74
2023/08/07 06:09:02;;;;;;;12.50;5.40;;;;;;;25.32;100.00;97754.48;105974;1249;74617;-73
2023/08/07 06:11:29;;;;;;;13.70;4.80;;;;;;;25.36;100.00;97745.00;105991;1250;71095;-74
2023/08/07 06:13:56;;;;;;;20.30;6.70;;;;;;;25.38;100.00;97755.91;105918;1250;72822;-74
2023/08/07 06:16:23;;;;;;;10.40;4.90;;;;;;;25.42;100.00;97774.95;105920;1251;61958;-74
2023/08/07 06:18:50;;;;;;;15.80;5.30;;;;;;;25.43;100.00;97763.25;105931;1253;61217;-74
2023/08/07 06:21:16;;;;;;;7.40;5.10;;;;;;;25.48;100.00;97762.10;105940;1251;73164;-75
2023/08/07 06:23:43;;;;;;;13.90;5.90;;;;;;;25.55;100.00;97761.50;105949;1253;61128;-74
2023/08/07 06:26:10;;;;;;;17.30;5.20;;;;;;;25.62;100.00;97761.48;105918;1249;72957;-74
2023/08/07 06:28:37;;;;;;;12.40;4.70;;;;;;;25.70;100.00;97767.74;106038;1250;61270;-75
2023/08/07 06:31:09;;;;;;;9.00;5.40;;;;;;;25.74;100.00;97781.52;105919;1253;61282;-75
2023/08/07 06:33:36;;;;;;;7.30;4.50;;;;;;;25.76;100.00;97776.97;105973;1250;74660;-74
2023/08/07 06:36:03;;;;;;;13.90;5.10;;;;;;;25.74;100.00;97758.55;105947;1250;71106;-74
2023/08/07 06:38:30;;;;;;;6.20;3.80;;;;;;;25.71;100.00;97748.77;105920;1251;72599;-75
2023/08/07 06:40:57;;;;;;;7.00;4.40;;;;;;;25.70;100.00;97768.28;106052;1250;61241;-75
2023/08/07 06:43:23;;;;;;;9.20;4.80;;;;;;;25.69;100.00;97770.09;105936;1251;61208;-75
2023/08/07 06:45:51;;;;;;;9.60;4.40;;;;;;;25.69;100.00;97771.96;105956;1253;74623;-75
2023/08/07 06:48:18;;;;;;;10.30;4.70;;;;;;;25.67;100.00;97768.05;105919;1250;71012;-75
2023/08/07 06:50:46;;;;;;;7.10;4.60;;;;;;;25.64;100.00;97778.16;105978;1251;72475;-74
2023/08/07 06:53:13;;;;;;;13.40;4.60;;;;;;;25.58;100.00;97780.40;106102;1251;61341;-74
2023/08/07 06:55:43;;;;;;;6.80;4.20;;;;;;;25.53;100.00;97781.96;105984;1250;61303;-76
2023/08/07 06:58:09;;;;;;;8.00;4.10;;;;;;;25.47;100.00;97789.60;105952;1250;74543;-74
2023/08/07 07:00:36;;;;;;;8.40;4.40;;;;;;;25.42;100.00;97799.31;105918;1251;71148;-75
2023/08/07 07:03:03;;;;;;;12.00;4.70;;;;;;;25.37;100.00;97805.48;105976;1250;72538;-74
2023/08/07 07:05:30;;;;;;;7.10;4.40;;;;;;;25.30;100.00;97804.91;105898;1250;61419;-73
2023/08/07 07:07:57;;;;;;;10.40;5.10;;;;;;;25.27;100.00;97805.72;105997;1253;61696;-75
2023/08/07 07:10:24;;;;;;;9.40;4.90;;;;;;;25.24;100.00;97792.80;105986;1250;75024;-74
2023/08/07 07:12:52;;;;;;;11.60;4.60;;;;;;;25.27;100.00;97794.21;105947;1250;70974;-74
2023/08/07 07:15:18;;;;;;;7.70;5.00;;;;;;;25.30;100.00;97789.03;105987;1250;72530;-75
2023/08/07 07:17:45;;;;;;;10.30;5.40;;;;;;;25.36;100.00;97802.48;105942;1253;61347;-75
2023/08/07 07:20:12;;;;;;;16.10;5.20;;;;;;;25.37;100.00;97810.90;105959;1249;61374;-76
2023/08/07 07:22:38;;;;;;;16.00;5.30;;;;;;;25.30;100.00;97813.09;105979;1250;74790;-74
2023/08/07 07:25:06;;;;;;;13.10;4.70;;;;;;;25.18;100.00;97807.42;105917;1251;71081;-74
2023/08/07 07:27:33;;;;;;;6.50;4.60;;;;;;;25.14;100.00;97805.55;106038;1251;72742;-75
2023/08/07 07:30:00;;;;;;;10.30;4.60;;;;;;;25.07;100.00;97813.98;106000;1251;61275;-75
2023/08/07 07:32:27;;;;;;;12.50;5.10;;;;;;;24.95;100.00;97807.58;105974;1251;61356;-75
2023/08/07 07:34:54;;;;;;;11.60;5.20;;;;;;;24.92;100.00;97812.39;105944;1253;74582;-75
2023/08/07 07:37:20;;;;;;;10.50;5.10;;;;;;;24.91;100.00;97820.27;105964;1250;71656;-75
2023/08/07 07:39:47;;;;;;;7.00;4.40;;;;;;;24.89;100.00;97821.08;105929;1251;72439;-75
2023/08/07 07:42:14;;;;;;;11.10;4.70;;;;;;;24.90;100.00;97829.50;105990;1251;61254;-76
2023/08/07 07:44:40;;;;;;;10.40;4.90;;;;;;;24.92;100.00;97826.66;106020;1250;61356;-75
2023/08/07 07:47:08;;;;;;;6.20;4.40;;;;;;;24.93;100.00;97829.15;105931;1253;74582;-75
2023/08/07 07:49:38;;;;;;;9.40;5.00;;;;;;;24.95;100.00;97826.45;105996;1251;70944;-78
2023/08/07 07:52:06;;;;;;;6.10;4.80;;;;;;;24.90;100.00;97830.98;105956;1250;72591;-76
2023/08/07 07:54:33;;;;;;;10.80;4.90;;;;;;;24.79;100.00;97835.98;106053;1251;62013;-75
2023/08/07 07:56:59;;;;;;;6.70;4.50;;;;;;;24.72;100.00;97837.80;106010;1249;61369;-75
2023/08/07 07:59:26;;;;;;;12.90;5.50;;;;;;;24.66;100.00;97829.48;105920;1253;74605;-75
2023/08/07 08:01:53;;;;;;;6.40;5.10;;;;;;;24.65;100.00;97824.05;105912;1250;71063;-74
2023/08/07 08:04:20;;;;;;;9.80;5.70;;;;;;;24.72;100.00;97822.66;105965;1253;72348;-76
2023/08/07 08:06:48;;;;;;;11.40;5.30;;;;;;;24.82;100.00;97815.60;105776;1256;61423;-76
2023/08/07 08:09:15;;;;;;;9.20;5.30;;;;;;;24.92;100.00;97817.43;106124;1251;61356;-75
2023/08/07 08:11:42;;;;;;;15.20;6.00;;;;;;;25.06;100.00;97813.52;106116;1251;74677;-76
2023/08/07 08:14:09;;;;;;;6.90;5.30;;;;;;;25.22;100.00;97805.55;105973;1251;70793;-74
2023/08/07 08:16:35;;;;;;;9.50;5.60;;;;;;;25.38;100.00;97802.30;105978;1250;72460;-75
2023/08/07 08:19:02;;;;;;;5.30;4.80;;;;;;;25.52;100.00;97785.18;105976;1250;61351;-75
2023/08/07 08:21:30;;;;;;;9.70;5.00;;;;;;;25.65;100.00;97780.91;105959;1253;61218;-74
2023/08/07 08:23:57;;;;;;;6.70;4.50;;;;;;;25.79;100.00;97768.20;105959;1251;74366;-74
2023/08/07 08:26:24;;;;;;;7.40;5.00;;;;;;;25.88;100.00;97757.67;105188;1250;1003051;-76
2023/08/07 08:28:51;;;;;;;8.50;4.70;;;;;;;25.97;100.00;97752.67;105764;1250;72429;-74
2023/08/07 08:31:19;;;;;;;10.00;4.40;;;;;;;26.08;100.00;97759.48;106008;1249;61300;-75
2023/08/07 08:33:46;;;;;;;9.70;5.00;;;;;;;26.16;100.00;97775.75;106020;1253;61215;-74
2023/08/07 08:36:13;;;;;;;7.40;4.60;;;;;;;26.14;100.00;97780.27;105970;1250;73150;-76
2023/08/07 08:38:39;;;;;;;10.60;4.90;;;;;;;26.10;100.00;97783.17;106079;1251;69595;-76
2023/08/07 08:41:06;;;;;;;10.40;5.30;;;;;;;26.10;100.00;97792.52;106010;1250;61248;-74
2023/08/07 08:43:34;;;;;;;11.20;4.90;;;;;;;26.15;100.00;97794.45;105980;1250;61365;-74
2023/08/07 08:46:01;;;;;;;9.80;4.60;;;;;;;26.22;100.00;97785.02;105946;1251;61294;-75
2023/08/07 08:48:28;;;;;;;7.60;4.20;;;;;;;26.33;100.00;97794.76;105936;1250;74523;-74
2023/08/07 08:50:54;;;;;;;9.40;4.30;;;;;;;26.47;100.00;97794.69;105790;1251;71754;-74
2023/08/07 08:53:22;;;;;;;7.00;4.50;;;;;;;26.60;100.00;97784.19;105926;1251;72676;-74
2023/08/07 08:55:49;;;;;;;17.70;4.60;;;;;;;26.67;100.00;97773.77;106081;1251;61289;-74
2023/08/07 08:58:16;;;;;;;8.60;4.50;;;;;;;26.63;100.00;97766.34;106007;1251;61318;-76
2023/08/07 09:00:42;;;;;;;11.90;6.60;;;;;;;26.56;100.00;97770.84;105909;1250;73324;-74
2023/08/07 09:03:09;;;;;;;17.40;8.20;;;;;;;26.41;100.00;97778.88;105756;1251;69591;-74
2023/08/07 09:05:36;;;;;;;14.20;6.10;;;;;;;26.25;100.00;97803.20;105846;1251;72419;-76
2023/08/07 09:08:03;;;;;;;23.60;8.30;;;;;;;26.14;100.00;97835.70;105901;1253;62502;-75
2023/08/07 09:10:30;;;;;;;13.70;7.20;;;;;;;25.93;100.00;97863.64;106161;1249;61153;-75
2023/08/07 09:13:00;;;;;;;11.40;6.70;;;;;;;25.53;100.00;97870.73;106080;1252;74368;-74
2023/08/07 09:15:28;;;;;;;15.80;9.20;;;;;;;25.15;100.00;97865.52;105962;1253;69089;-75
2023/08/07 09:17:55;;;;;;;15.50;9.10;;;;;;;24.89;100.00;97880.96;105843;1256;70946;-75
2023/08/07 09:20:22;;;;;;;17.60;10.10;;;;;;;24.72;100.00;97891.42;105761;1250;61809;-74
2023/08/07 09:22:49;;;;;;;13.20;8.80;;;;;;;24.61;100.00;97883.15;105748;1251;61297;-75
2023/08/07 09:25:35;;;;;;;13.00;9.20;;;;;;;24.55;100.00;97886.04;105939;1251;74782;-74
2023/08/07 09:28:05;;;;;;;14.30;9.30;;;;;;;24.51;100.00;97892.55;105987;1250;69511;-76
2023/08/07 09:30:34;;;;;;;15.70;8.30;;;;;;;24.51;100.00;97905.30;105923;1253;72698;-76
2023/08/07 09:33:01;;;;;;;12.60;7.70;;;;;;;24.52;100.00;97916.69;106090;1253;61814;-75
2023/08/07 09:35:30;;;;;;;10.10;6.70;;;;;;;24.55;100.00;97941.62;106061;1251;61320;-76
2023/08/07 09:37:57;;;;;;;9.90;6.20;;;;;;;24.53;100.00;97935.23;106089;1251;74746;-75
2023/08/07 09:40:24;;;;;;;13.90;5.80;;;;;;;24.45;100.00;97936.29;106056;1253;70903;-75
2023/08/07 09:42:54;;;;;;;6.70;4.50;;;;;;;24.30;100.00;97944.34;105985;1250;61324;-76
2023/08/07 09:45:21;;;;;;;9.40;5.10;;;;;;;24.05;100.00;97945.38;105835;1250;61785;-76
2023/08/07 09:48:01;;;;;;;11.40;5.30;;;;;;;23.76;100.00;97952.48;106135;1254;61449;-76
2023/08/07 09:50:29;;;;;;;12.50;5.50;;;;;;;23.48;100.00;97958.71;106062;1250;74657;-75
2023/08/07 09:52:56;;;;;;;9.60;5.40;;;;;;;23.31;100.00;97965.73;105903;1251;71209;-75
2023/08/07 09:55:23;;;;;;;11.20;4.80;;;;;;;23.20;100.00;97968.05;105963;1251;72468;-76
2023/08/07 09:57:50;;;;;;;12.70;6.30;;;;;;;23.11;100.00;97970.36;106039;1251;61752;-76
2023/08/07 10:00:19;;;;;;;5.90;5.00;;;;;;;23.03;100.00;97967.85;106002;1251;61244;-76
2023/08/07 10:02:47;;;;;;;13.80;4.60;;;;;;;22.95;100.00;97967.89;106024;1253;73584;-75
2023/08/07 10:05:14;;;;;;;12.90;4.70;;;;;;;22.87;100.00;97969.75;106033;1253;71307;-75
2023/08/07 10:07:41;;;;;;;6.00;4.50;;;;;;;22.72;100.00;97982.83;105879;1254;72463;-76
2023/08/07 10:10:08;;;;;;;6.20;4.80;;;;;;;22.54;100.00;98007.63;105948;1251;61943;-75
2023/08/07 10:12:35;;;;;;;5.80;4.70;;;;;;;22.40;100.00;98030.09;105941;1256;61195;-76
2023/08/07 10:15:02;;;;;;;9.00;4.80;;;;;;;22.30;100.00;98029.52;105821;1250;74597;-75
2023/08/07 10:17:29;;;;;;;8.80;5.60;;;;;;;22.23;100.00;98023.62;106014;1251;71170;-75
2023/08/07 10:19:56;;;;;;;10.10;5.10;;;;;;;22.15;100.00;98028.90;105986;1251;71024;-76
2023/08/07 10:22:25;;;;;;;6.80;4.60;;;;;;;22.06;100.00;98029.54;106128;1249;62031;-74
2023/08/07 10:24:53;;;;;;;7.70;5.20;;;;;;;21.96;100.00;98028.04;106103;1253;61237;-75
2023/08/07 10:27:20;;;;;;;8.10;4.90;;;;;;;21.92;100.00;98044.92;106081;1250;74806;-74
2023/08/07 10:29:47;;;;;;;6.50;4.60;;;;;;;21.88;100.00;98048.69;105737;1255;70266;-73
2023/08/07 10:32:15;;;;;;;6.90;4.60;;;;;;;21.88;100.00;98057.22;106035;1253;72721;-75
2023/08/07 10:34:46;;;;;;;9.10;5.20;;;;;;;21.87;100.00;98062.50;105920;1251;61651;-75
2023/08/07 10:37:39;;;;;;;7.00;5.50;;;;;;;21.82;100.00;98066.33;105974;1256;61254;-75
2023/08/07 10:40:09;;;;;;;6.00;4.80;;;;;;;21.71;100.00;98068.14;105991;1256;74764;-75
2023/08/07 10:42:54;;;;;;;10.30;5.10;;;;;;;21.63;100.00;98067.61;105994;1251;71089;-75
2023/08/07 10:45:22;;;;;;;5.40;4.70;;;;;;;21.59;100.00;98078.66;105938;1250;72534;-76
2023/08/07 10:48:04;;;;;;;5.10;4.30;;;;;;;21.58;100.00;98085.76;106138;1251;61862;-75
2023/08/07 10:50:32;;;;;;;5.60;4.00;;;;;;;21.56;100.00;98087.08;105961;1253;61161;-76
2023/08/07 10:53:02;;;;;;;3.50;3.20;;;;;;;21.53;100.00;98099.60;105903;1251;73513;-76
2023/08/07 10:55:44;;;;;;;3.90;3.60;;;;;;;21.52;100.00;98095.64;105961;1250;71110;-75
2023/08/07 10:58:24;;;;;;;3.50;2.90;;;;;;;21.45;100.00;98103.20;106012;1253;72485;-75
2023/08/07 11:00:52;;;;;;;3.40;3.10;;;;;;;21.40;100.00;98106.31;105907;1251;61799;-74
2023/08/07 11:03:28;;;;;;;4.00;3.30;;;;;;;21.34;100.00;98108.87;105920;1253;61273;-74
2023/08/07 11:05:58;;;;;;;4.50;2.80;;;;;;;21.28;100.00;98113.71;105943;1253;75887;-74
2023/08/07 11:08:24;;;;;;;3.50;2.90;;;;;;;21.23;100.00;98109.77;106038;1253;70977;-74
2023/08/07 11:10:52;;;;;;;2.40;2.20;;;;;;;21.22;100.00;98122.69;105882;1251;72605;-75
2023/08/07 11:13:18;;;;;;;2.30;2.00;;;;;;;21.22;100.00;98109.59;105427;1253;631978;-74
2023/08/07 11:15:45;;;;;;;4.20;2.20;;;;;;;21.27;100.00;98122.95;105979;1260;61328;-75
2023/08/07 11:18:12;;;;;;;6.90;2.40;;;;;;;21.36;100.00;98127.35;105951;1253;74521;-75